sensor_id;sensor_type;location;lat;lon;timestamp;P1;durP1;ratioP1;P2;durP2;ratioP2
75320;SDS011;63920;52.130;5.584;2022-10-14T00:00:36;55.35;;;29.10;;
75320;SDS011;63920;52.130;5.584;2022-10-14T00:03:02;77.95;;;29.70;;
75320;SDS011;63920;52.130;5.584;2022-10-14T00:05:28;54.70;;;29.88;;
75320;SDS011;63920;52.130;5.584;2022-10-14T00:07:53;55.55;;;30.17;;
75320;SDS011;63920;52.130;5.584;2022-10-14T00:10:20;56.47;;;30.58;;
75320;SDS011;63920;52.130;5.584;2022-10-14T00:12:45;76.55;;;33.85;;
75320;SDS011;63920;52.130;5.584;2022-10-14T00:15:11;65.97;;;33.17;;
75320;SDS011;63920;52.130;5.584;2022-10-14T00:17:37;82.35;;;35.45;;
75320;SDS011;63920;52.130;5.584;2022-10-14T00:20:03;70.50;;;34.97;;
75320;SDS011;63920;52.130;5.584;2022-10-14T00:22:28;86.70;;;35.08;;
75320;SDS011;63920;52.130;5.584;2022-10-14T00:24:54;59.05;;;31.25;;
75320;SDS011;63920;52.130;5.584;2022-10-14T00:27:20;69.60;;;30.25;;
75320;SDS011;63920;52.130;5.584;2022-10-14T00:29:45;59.63;;;29.42;;
75320;SDS011;63920;52.130;5.584;2022-10-14T00:32:11;60.42;;;32.75;;
75320;SDS011;63920;52.130;5.584;2022-10-14T00:34:36;63.35;;;32.42;;
75320;SDS011;63920;52.130;5.584;2022-10-14T00:37:02;56.63;;;29.83;;
75320;SDS011;63920;52.130;5.584;2022-10-14T00:39:27;58.47;;;30.98;;
75320;SDS011;63920;52.130;5.584;2022-10-14T00:41:53;59.13;;;31.35;;
75320;SDS011;63920;52.130;5.584;2022-10-14T00:46:47;62.95;;;32.25;;
75320;SDS011;63920;52.130;5.584;2022-10-14T00:49:15;59.25;;;32.33;;
75320;SDS011;63920;52.130;5.584;2022-10-14T00:51:51;62.53;;;31.80;;
75320;SDS011;63920;52.130;5.584;2022-10-14T00:54:21;56.25;;;29.85;;
75320;SDS011;63920;52.130;5.584;2022-10-14T00:56:49;61.85;;;31.95;;
75320;SDS011;63920;52.130;5.584;2022-10-14T00:59:16;61.00;;;31.88;;
75320;SDS011;63920;52.130;5.584;2022-10-14T01:01:42;61.83;;;30.02;;
75320;SDS011;63920;52.130;5.584;2022-10-14T01:04:08;56.13;;;29.08;;
75320;SDS011;63920;52.130;5.584;2022-10-14T01:11:46;46.22;;;25.88;;
75320;SDS011;63920;52.130;5.584;2022-10-14T01:14:41;49.83;;;24.83;;
75320;SDS011;63920;52.130;5.584;2022-10-14T01:26:35;47.13;;;26.08;;
75320;SDS011;63920;52.130;5.584;2022-10-14T01:29:12;43.47;;;24.13;;
75320;SDS011;63920;52.130;5.584;2022-10-14T01:32:01;49.63;;;25.30;;
75320;SDS011;63920;52.130;5.584;2022-10-14T01:34:38;47.97;;;24.85;;
75320;SDS011;63920;52.130;5.584;2022-10-14T01:37:10;43.60;;;25.15;;
75320;SDS011;63920;52.130;5.584;2022-10-14T01:39:44;43.75;;;25.77;;
75320;SDS011;63920;52.130;5.584;2022-10-14T01:42:14;48.65;;;25.83;;
75320;SDS011;63920;52.130;5.584;2022-10-14T01:44:45;48.45;;;25.63;;
75320;SDS011;63920;52.130;5.584;2022-10-14T01:47:15;43.65;;;24.98;;
75320;SDS011;63920;52.130;5.584;2022-10-14T01:49:44;47.38;;;26.20;;
75320;SDS011;63920;52.130;5.584;2022-10-14T01:52:17;61.17;;;27.58;;
75320;SDS011;63920;52.130;5.584;2022-10-14T01:54:46;50.83;;;26.95;;
75320;SDS011;63920;52.130;5.584;2022-10-14T01:57:19;47.30;;;24.17;;
75320;SDS011;63920;52.130;5.584;2022-10-14T01:59:50;45.65;;;24.75;;
75320;SDS011;63920;52.130;5.584;2022-10-14T02:02:16;39.92;;;21.73;;
75320;SDS011;63920;52.130;5.584;2022-10-14T02:04:42;44.05;;;22.42;;
75320;SDS011;63920;52.130;5.584;2022-10-14T02:07:14;47.97;;;19.45;;
75320;SDS011;63920;52.130;5.584;2022-10-14T02:09:55;38.03;;;19.35;;
75320;SDS011;63920;52.130;5.584;2022-10-14T02:15:12;34.75;;;19.02;;
75320;SDS011;63920;52.130;5.584;2022-10-14T02:20:20;29.38;;;17.75;;
75320;SDS011;63920;52.130;5.584;2022-10-14T02:23:10;35.60;;;18.67;;
75320;SDS011;63920;52.130;5.584;2022-10-14T02:25:43;30.65;;;17.63;;
75320;SDS011;63920;52.130;5.584;2022-10-14T02:28:11;42.20;;;20.33;;
75320;SDS011;63920;52.130;5.584;2022-10-14T02:30:42;35.55;;;20.15;;
75320;SDS011;63920;52.130;5.584;2022-10-14T02:33:14;36.88;;;20.27;;
75320;SDS011;63920;52.130;5.584;2022-10-14T02:35:40;32.97;;;18.73;;
75320;SDS011;63920;52.130;5.584;2022-10-14T02:38:07;32.65;;;18.73;;
75320;SDS011;63920;52.130;5.584;2022-10-14T02:40:41;35.60;;;18.98;;
75320;SDS011;63920;52.130;5.584;2022-10-14T02:43:09;34.88;;;20.02;;
75320;SDS011;63920;52.130;5.584;2022-10-14T02:45:36;33.65;;;18.60;;
75320;SDS011;63920;52.130;5.584;2022-10-14T02:48:05;31.20;;;18.40;;
75320;SDS011;63920;52.130;5.584;2022-10-14T02:50:31;32.80;;;18.88;;
75320;SDS011;63920;52.130;5.584;2022-10-14T02:52:57;30.98;;;18.55;;
75320;SDS011;63920;52.130;5.584;2022-10-14T02:55:23;36.75;;;20.77;;
75320;SDS011;63920;52.130;5.584;2022-10-14T02:57:49;32.42;;;18.00;;
75320;SDS011;63920;52.130;5.584;2022-10-14T03:00:14;32.15;;;19.33;;
75320;SDS011;63920;52.130;5.584;2022-10-14T03:02:40;32.45;;;19.20;;
75320;SDS011;63920;52.130;5.584;2022-10-14T03:05:06;32.53;;;19.77;;
75320;SDS011;63920;52.130;5.584;2022-10-14T03:07:32;34.42;;;19.98;;
75320;SDS011;63920;52.130;5.584;2022-10-14T03:09:58;35.03;;;19.20;;
75320;SDS011;63920;52.130;5.584;2022-10-14T03:12:23;34.33;;;19.55;;
75320;SDS011;63920;52.130;5.584;2022-10-14T03:14:49;35.72;;;20.05;;
75320;SDS011;63920;52.130;5.584;2022-10-14T03:17:15;38.97;;;21.45;;
75320;SDS011;63920;52.130;5.584;2022-10-14T03:19:40;35.33;;;20.98;;
75320;SDS011;63920;52.130;5.584;2022-10-14T03:22:06;38.28;;;22.05;;
75320;SDS011;63920;52.130;5.584;2022-10-14T03:24:32;36.97;;;20.67;;
75320;SDS011;63920;52.130;5.584;2022-10-14T03:26:57;37.40;;;22.02;;
75320;SDS011;63920;52.130;5.584;2022-10-14T03:29:23;39.15;;;22.17;;
75320;SDS011;63920;52.130;5.584;2022-10-14T03:31:48;38.72;;;22.75;;
75320;SDS011;63920;52.130;5.584;2022-10-14T03:34:14;36.47;;;22.88;;
75320;SDS011;63920;52.130;5.584;2022-10-14T03:36:40;38.50;;;23.30;;
75320;SDS011;63920;52.130;5.584;2022-10-14T03:39:05;38.35;;;22.40;;
75320;SDS011;63920;52.130;5.584;2022-10-14T03:41:31;40.83;;;24.02;;
75320;SDS011;63920;52.130;5.584;2022-10-14T03:43:57;49.95;;;25.48;;
75320;SDS011;63920;52.130;5.584;2022-10-14T03:46:22;45.75;;;26.13;;
75320;SDS011;63920;52.130;5.584;2022-10-14T03:48:48;41.17;;;23.75;;
75320;SDS011;63920;52.130;5.584;2022-10-14T03:51:13;39.92;;;25.23;;
75320;SDS011;63920;52.130;5.584;2022-10-14T03:53:39;43.15;;;25.77;;
75320;SDS011;63920;52.130;5.584;2022-10-14T03:56:05;38.85;;;23.92;;
75320;SDS011;63920;52.130;5.584;2022-10-14T03:58:30;42.53;;;25.35;;
75320;SDS011;63920;52.130;5.584;2022-10-14T04:00:56;47.75;;;26.02;;
75320;SDS011;63920;52.130;5.584;2022-10-14T04:03:22;42.63;;;25.30;;
75320;SDS011;63920;52.130;5.584;2022-10-14T04:05:47;42.33;;;25.35;;
75320;SDS011;63920;52.130;5.584;2022-10-14T04:08:13;46.55;;;27.17;;
75320;SDS011;63920;52.130;5.584;2022-10-14T04:10:38;44.58;;;27.35;;
75320;SDS011;63920;52.130;5.584;2022-10-14T04:13:04;43.97;;;26.58;;
75320;SDS011;63920;52.130;5.584;2022-10-14T04:15:29;45.55;;;27.88;;
75320;SDS011;63920;52.130;5.584;2022-10-14T04:17:55;46.20;;;26.65;;
75320;SDS011;63920;52.130;5.584;2022-10-14T04:20:21;46.00;;;28.10;;
75320;SDS011;63920;52.130;5.584;2022-10-14T04:22:46;46.05;;;28.15;;
75320;SDS011;63920;52.130;5.584;2022-10-14T04:25:12;48.13;;;27.33;;
75320;SDS011;63920;52.130;5.584;2022-10-14T04:27:38;48.45;;;28.13;;
75320;SDS011;63920;52.130;5.584;2022-10-14T04:30:04;49.72;;;28.98;;
75320;SDS011;63920;52.130;5.584;2022-10-14T04:32:30;56.13;;;30.15;;
75320;SDS011;63920;52.130;5.584;2022-10-14T04:34:56;51.38;;;30.75;;
75320;SDS011;63920;52.130;5.584;2022-10-14T04:37:21;53.30;;;32.30;;
75320;SDS011;63920;52.130;5.584;2022-10-14T04:39:47;53.40;;;30.70;;
75320;SDS011;63920;52.130;5.584;2022-10-14T04:42:12;53.28;;;31.33;;
75320;SDS011;63920;52.130;5.584;2022-10-14T04:44:38;60.72;;;33.25;;
75320;SDS011;63920;52.130;5.584;2022-10-14T04:47:04;57.85;;;32.17;;
75320;SDS011;63920;52.130;5.584;2022-10-14T04:49:30;53.75;;;30.15;;
75320;SDS011;63920;52.130;5.584;2022-10-14T04:51:55;60.47;;;31.85;;
75320;SDS011;63920;52.130;5.584;2022-10-14T04:54:21;64.82;;;32.83;;
75320;SDS011;63920;52.130;5.584;2022-10-14T04:56:46;58.65;;;33.70;;
75320;SDS011;63920;52.130;5.584;2022-10-14T04:59:12;57.95;;;32.75;;
75320;SDS011;63920;52.130;5.584;2022-10-14T05:01:38;62.05;;;32.53;;
75320;SDS011;63920;52.130;5.584;2022-10-14T05:04:04;62.58;;;36.05;;
75320;SDS011;63920;52.130;5.584;2022-10-14T05:06:29;58.00;;;32.45;;
75320;SDS011;63920;52.130;5.584;2022-10-14T05:08:55;60.90;;;34.20;;
75320;SDS011;63920;52.130;5.584;2022-10-14T05:11:21;55.03;;;31.55;;
75320;SDS011;63920;52.130;5.584;2022-10-14T05:13:46;64.57;;;34.53;;
75320;SDS011;63920;52.130;5.584;2022-10-14T05:16:12;58.20;;;33.33;;
75320;SDS011;63920;52.130;5.584;2022-10-14T05:18:38;61.65;;;33.95;;
75320;SDS011;63920;52.130;5.584;2022-10-14T05:21:04;63.42;;;34.55;;
75320;SDS011;63920;52.130;5.584;2022-10-14T05:23:29;66.82;;;36.17;;
75320;SDS011;63920;52.130;5.584;2022-10-14T05:25:55;58.97;;;33.35;;
75320;SDS011;63920;52.130;5.584;2022-10-14T05:28:20;63.22;;;34.72;;
75320;SDS011;63920;52.130;5.584;2022-10-14T05:30:46;66.90;;;35.15;;
75320;SDS011;63920;52.130;5.584;2022-10-14T05:33:11;62.35;;;34.67;;
75320;SDS011;63920;52.130;5.584;2022-10-14T05:35:37;65.85;;;35.67;;
75320;SDS011;63920;52.130;5.584;2022-10-14T05:38:03;66.53;;;36.33;;
75320;SDS011;63920;52.130;5.584;2022-10-14T05:40:29;66.07;;;34.90;;
75320;SDS011;63920;52.130;5.584;2022-10-14T05:42:54;67.90;;;35.42;;
75320;SDS011;63920;52.130;5.584;2022-10-14T05:45:20;64.90;;;35.17;;
75320;SDS011;63920;52.130;5.584;2022-10-14T05:47:46;63.90;;;35.72;;
75320;SDS011;63920;52.130;5.584;2022-10-14T05:50:12;72.03;;;38.97;;
75320;SDS011;63920;52.130;5.584;2022-10-14T05:52:38;66.50;;;38.53;;
75320;SDS011;63920;52.130;5.584;2022-10-14T05:55:05;68.93;;;38.40;;
75320;SDS011;63920;52.130;5.584;2022-10-14T05:57:31;62.63;;;36.10;;
75320;SDS011;63920;52.130;5.584;2022-10-14T05:59:58;60.25;;;35.15;;
75320;SDS011;63920;52.130;5.584;2022-10-14T06:02:24;63.47;;;35.03;;
75320;SDS011;63920;52.130;5.584;2022-10-14T06:04:49;61.38;;;34.50;;
75320;SDS011;63920;52.130;5.584;2022-10-14T06:07:15;60.00;;;33.88;;
75320;SDS011;63920;52.130;5.584;2022-10-14T06:09:41;57.03;;;33.95;;
75320;SDS011;63920;52.130;5.584;2022-10-14T06:12:06;55.10;;;31.83;;
75320;SDS011;63920;52.130;5.584;2022-10-14T06:14:32;50.50;;;31.83;;
75320;SDS011;63920;52.130;5.584;2022-10-14T06:16:58;49.30;;;31.20;;
75320;SDS011;63920;52.130;5.584;2022-10-14T06:19:23;54.15;;;31.65;;
75320;SDS011;63920;52.130;5.584;2022-10-14T06:21:49;52.60;;;31.60;;
75320;SDS011;63920;52.130;5.584;2022-10-14T06:24:15;51.25;;;30.27;;
75320;SDS011;63920;52.130;5.584;2022-10-14T06:26:40;50.13;;;29.52;;
75320;SDS011;63920;52.130;5.584;2022-10-14T06:29:06;46.38;;;28.58;;
75320;SDS011;63920;52.130;5.584;2022-10-14T06:31:32;42.08;;;27.60;;
75320;SDS011;63920;52.130;5.584;2022-10-14T06:33:58;47.97;;;30.33;;
75320;SDS011;63920;52.130;5.584;2022-10-14T06:36:24;40.33;;;26.35;;
75320;SDS011;63920;52.130;5.584;2022-10-14T06:38:50;40.10;;;26.27;;
75320;SDS011;63920;52.130;5.584;2022-10-14T06:41:16;34.35;;;24.10;;
75320;SDS011;63920;52.130;5.584;2022-10-14T06:43:41;36.53;;;23.67;;
75320;SDS011;63920;52.130;5.584;2022-10-14T06:46:07;32.72;;;22.20;;
75320;SDS011;63920;52.130;5.584;2022-10-14T06:48:32;29.38;;;20.58;;
75320;SDS011;63920;52.130;5.584;2022-10-14T06:50:58;32.40;;;21.15;;
75320;SDS011;63920;52.130;5.584;2022-10-14T06:53:25;31.05;;;21.15;;
75320;SDS011;63920;52.130;5.584;2022-10-14T06:56:01;29.00;;;20.20;;
75320;SDS011;63920;52.130;5.584;2022-10-14T06:58:29;27.00;;;19.20;;
75320;SDS011;63920;52.130;5.584;2022-10-14T07:00:59;25.63;;;19.40;;
75320;SDS011;63920;52.130;5.584;2022-10-14T07:03:28;25.67;;;18.33;;
75320;SDS011;63920;52.130;5.584;2022-10-14T07:05:54;26.70;;;18.83;;
75320;SDS011;63920;52.130;5.584;2022-10-14T07:08:20;22.98;;;17.45;;
75320;SDS011;63920;52.130;5.584;2022-10-14T07:10:46;24.13;;;18.08;;
75320;SDS011;63920;52.130;5.584;2022-10-14T07:13:12;22.80;;;17.55;;
75320;SDS011;63920;52.130;5.584;2022-10-14T07:15:38;24.05;;;17.35;;
75320;SDS011;63920;52.130;5.584;2022-10-14T07:18:04;24.08;;;18.35;;
75320;SDS011;63920;52.130;5.584;2022-10-14T07:20:30;22.80;;;17.05;;
75320;SDS011;63920;52.130;5.584;2022-10-14T07:22:57;20.80;;;16.98;;
75320;SDS011;63920;52.130;5.584;2022-10-14T07:25:23;19.63;;;16.13;;
75320;SDS011;63920;52.130;5.584;2022-10-14T07:27:49;20.75;;;16.40;;
75320;SDS011;63920;52.130;5.584;2022-10-14T07:30:16;19.80;;;16.95;;
75320;SDS011;63920;52.130;5.584;2022-10-14T07:32:42;19.10;;;16.52;;
75320;SDS011;63920;52.130;5.584;2022-10-14T07:35:07;20.88;;;16.65;;
75320;SDS011;63920;52.130;5.584;2022-10-14T07:37:33;19.13;;;16.17;;
75320;SDS011;63920;52.130;5.584;2022-10-14T07:39:59;20.73;;;16.88;;
75320;SDS011;63920;52.130;5.584;2022-10-14T07:42:24;20.52;;;17.23;;
75320;SDS011;63920;52.130;5.584;2022-10-14T07:44:50;20.77;;;17.77;;
75320;SDS011;63920;52.130;5.584;2022-10-14T07:47:18;20.40;;;16.33;;
75320;SDS011;63920;52.130;5.584;2022-10-14T07:49:43;20.45;;;17.35;;
75320;SDS011;63920;52.130;5.584;2022-10-14T07:52:09;22.73;;;18.58;;
75320;SDS011;63920;52.130;5.584;2022-10-14T07:54:34;22.98;;;18.25;;
75320;SDS011;63920;52.130;5.584;2022-10-14T07:57:00;21.50;;;17.98;;
75320;SDS011;63920;52.130;5.584;2022-10-14T07:59:26;22.63;;;17.65;;
75320;SDS011;63920;52.130;5.584;2022-10-14T08:01:52;22.10;;;17.27;;
75320;SDS011;63920;52.130;5.584;2022-10-14T08:04:18;20.65;;;17.80;;
75320;SDS011;63920;52.130;5.584;2022-10-14T08:06:45;23.30;;;17.98;;
75320;SDS011;63920;52.130;5.584;2022-10-14T08:09:12;20.38;;;16.58;;
75320;SDS011;63920;52.130;5.584;2022-10-14T08:11:38;21.38;;;16.45;;
75320;SDS011;63920;52.130;5.584;2022-10-14T08:14:04;22.27;;;17.70;;
75320;SDS011;63920;52.130;5.584;2022-10-14T08:16:31;19.55;;;15.95;;
75320;SDS011;63920;52.130;5.584;2022-10-14T08:18:59;18.27;;;16.27;;
75320;SDS011;63920;52.130;5.584;2022-10-14T08:21:27;21.92;;;16.50;;
75320;SDS011;63920;52.130;5.584;2022-10-14T08:23:53;19.48;;;16.70;;
75320;SDS011;63920;52.130;5.584;2022-10-14T08:28:44;17.98;;;15.77;;
75320;SDS011;63920;52.130;5.584;2022-10-14T08:31:10;21.15;;;16.30;;
75320;SDS011;63920;52.130;5.584;2022-10-14T08:33:36;19.25;;;16.42;;
75320;SDS011;63920;52.130;5.584;2022-10-14T08:36:01;24.63;;;18.75;;
75320;SDS011;63920;52.130;5.584;2022-10-14T08:38:27;23.60;;;17.90;;
75320;SDS011;63920;52.130;5.584;2022-10-14T08:41:02;21.15;;;17.50;;
75320;SDS011;63920;52.130;5.584;2022-10-14T08:43:41;23.45;;;19.60;;
75320;SDS011;63920;52.130;5.584;2022-10-14T08:46:21;27.10;;;21.65;;
75320;SDS011;63920;52.130;5.584;2022-10-14T08:48:54;25.63;;;20.92;;
75320;SDS011;63920;52.130;5.584;2022-10-14T08:51:26;29.23;;;23.30;;
75320;SDS011;63920;52.130;5.584;2022-10-14T08:53:57;30.20;;;22.63;;
75320;SDS011;63920;52.130;5.584;2022-10-14T08:56:30;26.33;;;20.73;;
75320;SDS011;63920;52.130;5.584;2022-10-14T08:58:59;28.13;;;22.40;;
75320;SDS011;63920;52.130;5.584;2022-10-14T09:01:31;33.67;;;23.60;;
75320;SDS011;63920;52.130;5.584;2022-10-14T09:04:05;34.10;;;23.08;;
75320;SDS011;63920;52.130;5.584;2022-10-14T09:06:37;27.45;;;21.27;;
75320;SDS011;63920;52.130;5.584;2022-10-14T09:11:37;24.15;;;20.52;;
75320;SDS011;63920;52.130;5.584;2022-10-14T09:14:07;29.10;;;21.85;;
75320;SDS011;63920;52.130;5.584;2022-10-14T09:16:37;27.48;;;21.83;;
75320;SDS011;63920;52.130;5.584;2022-10-14T09:19:14;23.60;;;20.55;;
75320;SDS011;63920;52.130;5.584;2022-10-14T09:21:48;25.38;;;20.50;;
75320;SDS011;63920;52.130;5.584;2022-10-14T09:24:19;22.15;;;18.90;;
75320;SDS011;63920;52.130;5.584;2022-10-14T09:26:51;24.02;;;19.38;;
75320;SDS011;63920;52.130;5.584;2022-10-14T09:29:25;22.50;;;18.67;;
75320;SDS011;63920;52.130;5.584;2022-10-14T09:31:54;23.38;;;18.70;;
75320;SDS011;63920;52.130;5.584;2022-10-14T09:34:30;21.60;;;18.25;;
75320;SDS011;63920;52.130;5.584;2022-10-14T09:37:43;22.02;;;17.40;;
75320;SDS011;63920;52.130;5.584;2022-10-14T09:39:47;20.20;;;17.92;;
75320;SDS011;63920;52.130;5.584;2022-10-14T09:42:17;19.98;;;15.93;;
75320;SDS011;63920;52.130;5.584;2022-10-14T09:44:58;22.02;;;17.77;;
75320;SDS011;63920;52.130;5.584;2022-10-14T09:47:34;21.40;;;16.58;;
75320;SDS011;63920;52.130;5.584;2022-10-14T09:50:06;23.63;;;16.90;;
75320;SDS011;63920;52.130;5.584;2022-10-14T09:52:34;17.90;;;16.02;;
75320;SDS011;63920;52.130;5.584;2022-10-14T09:55:02;19.10;;;16.30;;
75320;SDS011;63920;52.130;5.584;2022-10-14T09:57:30;22.02;;;18.30;;
75320;SDS011;63920;52.130;5.584;2022-10-14T10:00:00;20.45;;;17.15;;
75320;SDS011;63920;52.130;5.584;2022-10-14T10:02:41;21.23;;;18.27;;
75320;SDS011;63920;52.130;5.584;2022-10-14T10:05:28;24.70;;;18.30;;
75320;SDS011;63920;52.130;5.584;2022-10-14T10:07:59;24.80;;;19.63;;
75320;SDS011;63920;52.130;5.584;2022-10-14T10:10:38;21.33;;;18.67;;
75320;SDS011;63920;52.130;5.584;2022-10-14T10:13:19;22.25;;;19.00;;
75320;SDS011;63920;52.130;5.584;2022-10-14T10:15:55;25.20;;;18.85;;
75320;SDS011;63920;52.130;5.584;2022-10-14T10:18:25;20.90;;;18.63;;
75320;SDS011;63920;52.130;5.584;2022-10-14T10:21:02;22.23;;;19.48;;
75320;SDS011;63920;52.130;5.584;2022-10-14T10:23:38;24.20;;;19.50;;
75320;SDS011;63920;52.130;5.584;2022-10-14T10:26:19;21.27;;;18.95;;
75320;SDS011;63920;52.130;5.584;2022-10-14T10:28:50;24.25;;;18.58;;
75320;SDS011;63920;52.130;5.584;2022-10-14T10:31:18;22.27;;;18.15;;
75320;SDS011;63920;52.130;5.584;2022-10-14T10:37:25;23.98;;;19.77;;
75320;SDS011;63920;52.130;5.584;2022-10-14T10:40:06;24.25;;;19.02;;
75320;SDS011;63920;52.130;5.584;2022-10-14T10:48:16;22.20;;;18.38;;
75320;SDS011;63920;52.130;5.584;2022-10-14T10:50:56;22.95;;;20.08;;
75320;SDS011;63920;52.130;5.584;2022-10-14T10:59:22;24.23;;;19.90;;
75320;SDS011;63920;52.130;5.584;2022-10-14T11:04:46;24.00;;;19.83;;
75320;SDS011;63920;52.130;5.584;2022-10-14T11:07:32;22.92;;;20.23;;
75320;SDS011;63920;52.130;5.584;2022-10-14T11:11:00;20.67;;;18.50;;
75320;SDS011;63920;52.130;5.584;2022-10-14T11:13:58;24.38;;;20.33;;
75320;SDS011;63920;52.130;5.584;2022-10-14T11:19:37;21.98;;;19.60;;
75320;SDS011;63920;52.130;5.584;2022-10-14T11:22:26;24.17;;;18.92;;
75320;SDS011;63920;52.130;5.584;2022-10-14T11:25:18;23.50;;;16.88;;
75320;SDS011;63920;52.130;5.584;2022-10-14T11:28:00;20.48;;;17.27;;
75320;SDS011;63920;52.130;5.584;2022-10-14T11:44:44;20.38;;;18.23;;
75320;SDS011;63920;52.130;5.584;2022-10-14T11:47:23;19.75;;;17.38;;
75320;SDS011;63920;52.130;5.584;2022-10-14T11:50:02;19.55;;;16.88;;
75320;SDS011;63920;52.130;5.584;2022-10-14T11:52:57;17.13;;;15.32;;
75320;SDS011;63920;52.130;5.584;2022-10-14T11:55:31;17.27;;;15.45;;
75320;SDS011;63920;52.130;5.584;2022-10-14T11:58:03;17.25;;;15.50;;
75320;SDS011;63920;52.130;5.584;2022-10-14T12:00:34;19.15;;;16.33;;
75320;SDS011;63920;52.130;5.584;2022-10-14T12:08:31;20.05;;;16.88;;
75320;SDS011;63920;52.130;5.584;2022-10-14T12:11:14;17.48;;;15.68;;
75320;SDS011;63920;52.130;5.584;2022-10-14T12:13:53;15.98;;;14.38;;
75320;SDS011;63920;52.130;5.584;2022-10-14T12:16:25;17.00;;;14.18;;
75320;SDS011;63920;52.130;5.584;2022-10-14T12:18:53;17.50;;;15.55;;
75320;SDS011;63920;52.130;5.584;2022-10-14T12:24:05;15.93;;;14.38;;
75320;SDS011;63920;52.130;5.584;2022-10-14T12:26:51;16.83;;;13.40;;
75320;SDS011;63920;52.130;5.584;2022-10-14T12:29:26;14.57;;;13.18;;
75320;SDS011;63920;52.130;5.584;2022-10-14T12:34:30;15.38;;;13.65;;
75320;SDS011;63920;52.130;5.584;2022-10-14T12:36:58;14.98;;;13.32;;
75320;SDS011;63920;52.130;5.584;2022-10-14T12:39:31;14.73;;;13.23;;
75320;SDS011;63920;52.130;5.584;2022-10-14T12:44:56;13.98;;;12.52;;
75320;SDS011;63920;52.130;5.584;2022-10-14T12:47:29;13.05;;;11.68;;
75320;SDS011;63920;52.130;5.584;2022-10-14T12:50:00;12.43;;;11.23;;
75320;SDS011;63920;52.130;5.584;2022-10-14T12:52:46;12.18;;;10.98;;
75320;SDS011;63920;52.130;5.584;2022-10-14T12:55:22;13.18;;;11.90;;
75320;SDS011;63920;52.130;5.584;2022-10-14T12:57:55;11.90;;;10.80;;
75320;SDS011;63920;52.130;5.584;2022-10-14T13:00:36;10.07;;;9.07;;
75320;SDS011;63920;52.130;5.584;2022-10-14T13:03:03;11.30;;;10.30;;
75320;SDS011;63920;52.130;5.584;2022-10-14T13:05:41;11.40;;;10.40;;
75320;SDS011;63920;52.130;5.584;2022-10-14T13:08:21;11.43;;;10.43;;
75320;SDS011;63920;52.130;5.584;2022-10-14T13:27:10;12.80;;;11.68;;
75320;SDS011;63920;52.130;5.584;2022-10-14T13:32:27;9.63;;;8.73;;
75320;SDS011;63920;52.130;5.584;2022-10-14T13:37:55;9.13;;;8.23;;
75320;SDS011;63920;52.130;5.584;2022-10-14T13:40:32;9.45;;;8.52;;
75320;SDS011;63920;52.130;5.584;2022-10-14T13:43:07;9.57;;;8.68;;
75320;SDS011;63920;52.130;5.584;2022-10-14T13:46:20;8.85;;;8.05;;
75320;SDS011;63920;52.130;5.584;2022-10-14T13:48:46;9.52;;;8.65;;
75320;SDS011;63920;52.130;5.584;2022-10-14T13:54:40;9.10;;;8.20;;
75320;SDS011;63920;52.130;5.584;2022-10-14T13:59:35;9.93;;;9.05;;
75320;SDS011;63920;52.130;5.584;2022-10-14T14:02:03;10.23;;;9.25;;
75320;SDS011;63920;52.130;5.584;2022-10-14T14:04:40;10.23;;;9.40;;
75320;SDS011;63920;52.130;5.584;2022-10-14T14:07:11;10.75;;;9.77;;
75320;SDS011;63920;52.130;5.584;2022-10-14T14:09:46;10.55;;;9.60;;
75320;SDS011;63920;52.130;5.584;2022-10-14T14:12:15;11.07;;;9.90;;
75320;SDS011;63920;52.130;5.584;2022-10-14T14:14:43;9.77;;;8.80;;
75320;SDS011;63920;52.130;5.584;2022-10-14T14:17:19;8.82;;;8.05;;
75320;SDS011;63920;52.130;5.584;2022-10-14T14:19:47;10.00;;;8.95;;
75320;SDS011;63920;52.130;5.584;2022-10-14T14:24:44;10.23;;;9.32;;
75320;SDS011;63920;52.130;5.584;2022-10-14T14:27:15;10.10;;;9.10;;
75320;SDS011;63920;52.130;5.584;2022-10-14T14:29:48;8.85;;;8.05;;
75320;SDS011;63920;52.130;5.584;2022-10-14T14:32:16;9.85;;;8.85;;
75320;SDS011;63920;52.130;5.584;2022-10-14T14:34:45;9.90;;;8.23;;
75320;SDS011;63920;52.130;5.584;2022-10-14T14:40:00;9.23;;;8.32;;
75320;SDS011;63920;52.130;5.584;2022-10-14T14:42:31;10.50;;;8.80;;
75320;SDS011;63920;52.130;5.584;2022-10-14T14:45:05;11.45;;;10.15;;
75320;SDS011;63920;52.130;5.584;2022-10-14T14:47:41;11.15;;;9.98;;
75320;SDS011;63920;52.130;5.584;2022-10-14T14:50:12;11.80;;;10.63;;
75320;SDS011;63920;52.130;5.584;2022-10-14T14:52:40;11.38;;;10.18;;
75320;SDS011;63920;52.130;5.584;2022-10-14T14:58:31;13.00;;;11.70;;
75320;SDS011;63920;52.130;5.584;2022-10-14T15:01:17;14.50;;;12.38;;
75320;SDS011;63920;52.130;5.584;2022-10-14T15:03:51;14.32;;;12.77;;
75320;SDS011;63920;52.130;5.584;2022-10-14T15:06:17;15.52;;;12.20;;
75320;SDS011;63920;52.130;5.584;2022-10-14T15:08:46;17.15;;;13.98;;
75320;SDS011;63920;52.130;5.584;2022-10-14T15:11:14;18.30;;;13.75;;
75320;SDS011;63920;52.130;5.584;2022-10-14T15:16:06;17.77;;;14.05;;
75320;SDS011;63920;52.130;5.584;2022-10-14T15:18:31;17.50;;;14.73;;
75320;SDS011;63920;52.130;5.584;2022-10-14T15:26:30;15.80;;;14.10;;
75320;SDS011;63920;52.130;5.584;2022-10-14T15:31:32;20.55;;;16.27;;
75320;SDS011;63920;52.130;5.584;2022-10-14T15:34:01;22.08;;;16.45;;
75320;SDS011;63920;52.130;5.584;2022-10-14T15:36:28;20.05;;;16.80;;
75320;SDS011;63920;52.130;5.584;2022-10-14T15:38:56;20.65;;;17.10;;
75320;SDS011;63920;52.130;5.584;2022-10-14T15:41:24;17.48;;;15.65;;
75320;SDS011;63920;52.130;5.584;2022-10-14T15:43:50;21.17;;;17.17;;
75320;SDS011;63920;52.130;5.584;2022-10-14T15:46:15;20.15;;;16.88;;
75320;SDS011;63920;52.130;5.584;2022-10-14T15:49:01;19.17;;;16.83;;
75320;SDS011;63920;52.130;5.584;2022-10-14T15:51:29;20.83;;;18.10;;
75320;SDS011;63920;52.130;5.584;2022-10-14T15:53:55;22.27;;;18.40;;
75320;SDS011;63920;52.130;5.584;2022-10-14T15:56:21;22.10;;;17.60;;
75320;SDS011;63920;52.130;5.584;2022-10-14T15:58:47;21.48;;;18.08;;
75320;SDS011;63920;52.130;5.584;2022-10-14T16:01:16;20.52;;;17.85;;
75320;SDS011;63920;52.130;5.584;2022-10-14T16:03:44;24.17;;;19.58;;
75320;SDS011;63920;52.130;5.584;2022-10-14T16:06:10;27.48;;;19.70;;
75320;SDS011;63920;52.130;5.584;2022-10-14T16:08:36;26.45;;;20.27;;
75320;SDS011;63920;52.130;5.584;2022-10-14T16:11:02;31.02;;;19.52;;
75320;SDS011;63920;52.130;5.584;2022-10-14T16:13:29;25.77;;;19.05;;
75320;SDS011;63920;52.130;5.584;2022-10-14T16:15:55;22.35;;;19.10;;
75320;SDS011;63920;52.130;5.584;2022-10-14T16:18:24;28.27;;;19.00;;
75320;SDS011;63920;52.130;5.584;2022-10-14T16:20:50;20.92;;;17.30;;
75320;SDS011;63920;52.130;5.584;2022-10-14T16:23:16;26.15;;;18.95;;
75320;SDS011;63920;52.130;5.584;2022-10-14T16:25:47;24.15;;;19.10;;
75320;SDS011;63920;52.130;5.584;2022-10-14T16:28:13;21.45;;;17.73;;
75320;SDS011;63920;52.130;5.584;2022-10-14T16:30:41;21.42;;;18.23;;
75320;SDS011;63920;52.130;5.584;2022-10-14T16:33:10;24.13;;;19.50;;
75320;SDS011;63920;52.130;5.584;2022-10-14T16:35:36;24.50;;;19.17;;
75320;SDS011;63920;52.130;5.584;2022-10-14T16:38:01;25.38;;;19.75;;
75320;SDS011;63920;52.130;5.584;2022-10-14T16:40:27;25.65;;;19.63;;